Details From OAIX - Bagram
To UTDK - Kulyab
Flight Number -
Tags Generated
Created
Modified
Stats Distance 185 nm / 342 km
Max Altitude 0 ft / 0 m
Waypoints 2
Social Downloads 3
Likes 0
Share VATSIM

Download

Looking for another format? Having issues loading an existing format? Contact us
Advertisement - Login to hide

Notes

Generated

Route

OAIX UTDK

ID Type Via Altitude Latitude Longitude Leg Dist Tot Dist Heading (true) Name
O OAIX APT - 0 ft / 0 m 34.93431˚ 69.25700˚ - 0 nm - -
O UTDK APT - 0 ft / 0 m 37.97500˚ 69.80167˚ 184 nm 184 nm 8° / 8° -

Altitude Profile

Advertisement - Login to hide

Weather


0- 5 10 15 20 25 30 35+ Temperature / ° C

Clouds and Precipitation
Forecast for 2017-12-12 12:00 UTC. Updated an hour ago

Ground ~20,000 ft ~40,000 ft Winds

OAIX

Details ICAO OAIX (BPM)
Name BAGRAM
Region Afghanistan
Timezone Asia/Kabul (UTC+4.5)
Stats Elevation 4,895 ft / 1,492 m (AMSL)
Location 34.946139° 69.264972°
Runways 1
Magnetic Variation 3.269° E

METAR

OAIX 121222Z COR 02013G20KT 9999 SCT110 07/M13 A3000 RMK AO2A WSHFT 20 SLP144 COR 1230

Decode

TAF

TAF AMD OAIX 121220Z 1212/1313 04012G18KT 9999 VCSH SCT080 BKN100 QNH2988INS TEMPO 1212/1214 03015G25KT 5000 BLDU 520503 BECMG 1215/1216 28009KT 9999 NSW SCT080 BKN100 QNH2982INS BECMG 1305/1306 13009KT 8000 -SHRA BKN040 610409 QNH2999INS TX12/1310Z TNM04/1300Z

Decode

Departure Runways

ID Width Length Bearing (true) Bearing (mag) Surface Threshold Offset Overrun Length
03 180 ft / 55 m 9,865 ft / 3,007 m 28.90° 25.63° Concrete 0 ft / 0 m 0 ft / 0 m
21 180 ft / 55 m 9,865 ft / 3,007 m 208.91° 205.64° Concrete 0 ft / 0 m 0 ft / 0 m

UTDK

Details ICAO UTDK (TJU)
Name KULYAB
Region Tajikistan, Turkmenistan and Uzbekistan
Timezone Asia/Dushanbe (UTC+5.0)
Stats Elevation 2,293 ft / 699 m (AMSL)
Location 37.988334° 69.806667°
Runways 1
Magnetic Variation 4.170° E

METAR

UTDK 121230Z 01001MPS 8000 SCT034 BKN040 05/01 Q1027 R01/09//70 RMK QFE712/0950

Decode

TAF

Not found

Destination Runways

ID Width Length Bearing (true) Bearing (mag) Surface Threshold Offset Overrun Length
01 137 ft / 42 m 10,147 ft / 3,093 m 16.46° 12.29° Asphalt 0 ft / 0 m 0 ft / 0 m
19 137 ft / 42 m 10,147 ft / 3,093 m 196.47° 192.30° Asphalt 0 ft / 0 m 0 ft / 0 m